createdAt,value
2023-01-30T00:01:40.047Z,97731.38
2023-01-30T00:04:06.696Z,97739.13
2023-01-30T00:06:33.347Z,97737.72
2023-01-30T00:08:59.976Z,97729.19
2023-01-30T00:11:26.599Z,97731.94
2023-01-30T00:13:53.303Z,97731.66
2023-01-30T00:16:19.980Z,97723.66
2023-01-30T00:18:46.638Z,97730.03
2023-01-30T00:21:14.131Z,97730.06
2023-01-30T00:23:40.808Z,97724.81
2023-01-30T00:26:07.618Z,97733.06
2023-01-30T00:28:34.251Z,97726.22
2023-01-30T00:31:01.004Z,97724.50
2023-01-30T00:33:27.894Z,97729.41
2023-01-30T00:35:56.304Z,97729.59
2023-01-30T00:38:23.187Z,97734.19
2023-01-30T00:40:49.891Z,97718.72
2023-01-30T00:43:17.829Z,97721.38
2023-01-30T00:45:44.780Z,97727.34
2023-01-30T00:48:11.427Z,97721.19
2023-01-30T00:50:38.051Z,97716.22
2023-01-30T00:53:04.941Z,97729.84
2023-01-30T00:55:31.701Z,97729.72
2023-01-30T00:57:58.304Z,97728.25
2023-01-30T01:00:25.045Z,97739.56
2023-01-30T01:02:51.745Z,97734.31
2023-01-30T01:05:18.749Z,97732.31
2023-01-30T01:07:45.573Z,97728.59
2023-01-30T01:10:12.163Z,97724.06
2023-01-30T01:12:38.971Z,97729.94
2023-01-30T01:15:06.116Z,97734.59
2023-01-30T01:17:32.947Z,97722.00
2023-01-30T01:19:59.649Z,97723.28
2023-01-30T01:22:26.280Z,97725.41
2023-01-30T01:24:52.894Z,97721.69
2023-01-30T01:27:19.623Z,97719.44
2023-01-30T01:29:46.423Z,97725.47
2023-01-30T01:32:13.132Z,97718.91
2023-01-30T01:34:39.808Z,97706.19
2023-01-30T01:37:06.493Z,97712.34
2023-01-30T01:39:33.128Z,97714.50
2023-01-30T01:41:59.766Z,97717.34
2023-01-30T01:44:26.442Z,97715.53
2023-01-30T01:46:57.455Z,97710.34
2023-01-30T01:49:26.649Z,97712.50
2023-01-30T01:52:01.931Z,97708.81
2023-01-30T01:54:37.816Z,97705.19
2023-01-30T01:57:06.840Z,97707.59
2023-01-30T01:59:37.792Z,97705.25
2023-01-30T02:02:07.707Z,97703.56
2023-01-30T02:04:34.530Z,97706.63
2023-01-30T02:07:01.279Z,97714.34
2023-01-30T02:09:28.047Z,97709.13
2023-01-30T02:11:56.321Z,97717.56
2023-01-30T02:14:23.002Z,97715.94
2023-01-30T02:16:49.654Z,97708.94
2023-01-30T02:19:25.853Z,97709.44
2023-01-30T02:22:01.588Z,97707.81
2023-01-30T02:24:45.129Z,97705.38
2023-01-30T02:27:30.584Z,97703.88
2023-01-30T02:30:43.031Z,97708.28
2023-01-30T02:33:21.339Z,97705.72
2023-01-30T02:36:00.077Z,97707.94
2023-01-30T02:38:33.688Z,97711.44
2023-01-30T02:41:09.540Z,97710.59
2023-01-30T02:44:05.606Z,97718.00
2023-01-30T02:46:33.175Z,97716.06
2023-01-30T02:49:09.513Z,97707.88
2023-01-30T02:51:37.125Z,97720.91
2023-01-30T02:54:06.062Z,97713.91
2023-01-30T02:56:48.663Z,97723.97
2023-01-30T02:59:17.005Z,97731.56
2023-01-30T03:02:15.795Z,97728.50
2023-01-30T03:04:58.376Z,97732.38
2023-01-30T03:07:48.212Z,97726.28
2023-01-30T03:10:17.218Z,97733.78
2023-01-30T03:12:51.427Z,97746.34
2023-01-30T03:15:27.976Z,97763.03
2023-01-30T03:17:54.590Z,97780.53
2023-01-30T03:20:21.325Z,97782.78
2023-01-30T03:22:47.926Z,97786.00
2023-01-30T03:25:20.059Z,97774.53
2023-01-30T03:27:46.805Z,97761.59
2023-01-30T03:30:13.744Z,97760.22
2023-01-30T03:32:40.411Z,97766.75
2023-01-30T03:35:07.271Z,97785.19
2023-01-30T03:37:33.942Z,97781.56
2023-01-30T03:40:00.603Z,97767.13
2023-01-30T03:42:27.266Z,97778.13
2023-01-30T03:44:53.908Z,97790.16
2023-01-30T03:47:20.527Z,97792.34
2023-01-30T03:49:47.192Z,97797.22
2023-01-30T03:52:13.810Z,97790.34
2023-01-30T03:54:40.429Z,97792.25
2023-01-30T03:57:07.070Z,97804.38
2023-01-30T03:59:33.739Z,97796.78
2023-01-30T04:02:00.422Z,97794.81
2023-01-30T04:04:27.081Z,97792.00
2023-01-30T04:06:53.762Z,97784.25
2023-01-30T04:09:20.635Z,97784.50
2023-01-30T04:11:48.776Z,97783.53
2023-01-30T04:14:15.384Z,97772.06
2023-01-30T04:16:42.369Z,97766.28
2023-01-30T04:19:09.028Z,97772.72
2023-01-30T04:21:35.703Z,97764.19
2023-01-30T04:24:02.408Z,97779.63
2023-01-30T04:26:29.148Z,97773.19
2023-01-30T04:28:55.828Z,97781.31
2023-01-30T04:31:22.512Z,97764.84
2023-01-30T04:33:49.216Z,97756.41
2023-01-30T04:36:15.864Z,97746.22
2023-01-30T04:38:42.539Z,97755.31
2023-01-30T04:41:09.198Z,97759.97
2023-01-30T04:43:36.063Z,97761.31
2023-01-30T04:46:02.769Z,97759.66
2023-01-30T04:48:29.590Z,97759.06
2023-01-30T04:50:56.311Z,97758.31
2023-01-30T04:53:23.337Z,97749.72
2023-01-30T04:55:49.990Z,97758.56
2023-01-30T04:58:17.064Z,97759.97
2023-01-30T05:00:43.760Z,97757.78
2023-01-30T05:03:10.417Z,97765.53
2023-01-30T05:05:37.133Z,97761.22
2023-01-30T05:08:03.952Z,97758.34
2023-01-30T05:10:30.608Z,97746.50
2023-01-30T05:12:57.294Z,97728.84
2023-01-30T05:15:23.987Z,97718.63
2023-01-30T05:17:50.775Z,97721.09
2023-01-30T05:20:17.558Z,97733.81
2023-01-30T05:22:44.206Z,97722.97
2023-01-30T05:25:10.813Z,97735.03
2023-01-30T05:27:37.481Z,97739.69
2023-01-30T05:30:04.431Z,97726.44
2023-01-30T05:32:31.193Z,97725.59
2023-01-30T05:34:57.817Z,97719.75
2023-01-30T05:37:24.596Z,97725.13
2023-01-30T05:39:51.538Z,97713.69
2023-01-30T05:42:18.188Z,97716.50
2023-01-30T05:44:44.867Z,97721.03
2023-01-30T05:47:11.543Z,97711.34
2023-01-30T05:49:38.238Z,97713.16
2023-01-30T05:52:05.201Z,97720.00
2023-01-30T05:54:31.834Z,97718.41
2023-01-30T05:56:58.509Z,97710.91
2023-01-30T05:59:25.240Z,97723.84
2023-01-30T06:01:52.113Z,97715.88
2023-01-30T06:04:18.723Z,97718.91
2023-01-30T06:06:45.496Z,97719.59
2023-01-30T06:09:12.151Z,97712.94
2023-01-30T06:11:38.887Z,97732.31
2023-01-30T06:14:05.569Z,97727.25
2023-01-30T06:16:32.236Z,97732.72
2023-01-30T06:18:59.179Z,97733.09
2023-01-30T06:21:25.990Z,97735.09
2023-01-30T06:23:52.644Z,97739.53
2023-01-30T06:26:19.466Z,97738.16
2023-01-30T06:28:46.104Z,97730.97
2023-01-30T06:31:12.822Z,97731.03
2023-01-30T06:33:39.572Z,97729.31
2023-01-30T06:36:06.528Z,97737.13
2023-01-30T06:38:33.178Z,97760.63
2023-01-30T06:40:59.923Z,97754.41
2023-01-30T06:43:26.583Z,97749.63
2023-01-30T06:45:53.458Z,97746.28
2023-01-30T06:48:20.203Z,97745.53
2023-01-30T06:50:47.131Z,97745.28
2023-01-30T06:53:13.761Z,97754.47
2023-01-30T06:55:40.521Z,97749.44
2023-01-30T06:58:08.616Z,97747.28
2023-01-30T07:00:35.526Z,97739.91
2023-01-30T07:03:02.172Z,97745.44
2023-01-30T07:05:28.975Z,97738.06
2023-01-30T07:07:55.707Z,97729.25
2023-01-30T07:10:22.401Z,97725.97
2023-01-30T07:12:49.169Z,97721.84
2023-01-30T07:15:16.188Z,97719.03
2023-01-30T07:17:43.227Z,97720.81
2023-01-30T07:20:10.726Z,97716.88
2023-01-30T07:22:37.558Z,97713.44
2023-01-30T07:25:04.820Z,97713.19
2023-01-30T07:27:33.957Z,97731.16
2023-01-30T07:30:00.697Z,97756.97
2023-01-30T07:32:27.590Z,97766.97
2023-01-30T07:34:54.255Z,97780.63
2023-01-30T07:37:20.881Z,97774.25
2023-01-30T07:39:47.523Z,97785.09
2023-01-30T07:42:14.327Z,97787.59
2023-01-30T07:44:41.396Z,97793.75
2023-01-30T07:47:08.202Z,97790.88
2023-01-30T07:49:34.900Z,97792.25
2023-01-30T07:52:01.609Z,97787.59
2023-01-30T07:54:28.230Z,97801.88
2023-01-30T07:56:55.030Z,97803.25
2023-01-30T07:59:21.684Z,97816.28
2023-01-30T08:01:48.333Z,97815.97
2023-01-30T08:04:15.032Z,97817.16
2023-01-30T08:06:41.821Z,97824.31
2023-01-30T08:09:08.682Z,97830.97
2023-01-30T08:11:35.440Z,97823.81
2023-01-30T08:14:02.485Z,97819.94
2023-01-30T08:16:29.210Z,97824.09
2023-01-30T08:18:55.872Z,97822.84
2023-01-30T08:21:22.814Z,97819.09
2023-01-30T08:23:49.476Z,97823.91
2023-01-30T08:26:16.183Z,97821.59
2023-01-30T08:28:42.872Z,97803.81
2023-01-30T08:31:13.218Z,97801.06
2023-01-30T08:33:42.270Z,97801.44
2023-01-30T08:36:09.222Z,97799.88
2023-01-30T08:38:35.993Z,97812.25
2023-01-30T08:41:07.063Z,97817.41
2023-01-30T08:43:34.702Z,97804.69
2023-01-30T08:46:01.421Z,97815.59
2023-01-30T08:48:29.869Z,97828.09
2023-01-30T08:50:58.536Z,97831.03
2023-01-30T08:53:25.175Z,97819.28
2023-01-30T08:55:52.497Z,97818.69
2023-01-30T08:58:21.962Z,97824.03
2023-01-30T09:00:48.925Z,97821.03
2023-01-30T09:03:15.592Z,97826.81
2023-01-30T09:05:42.519Z,97824.91
2023-01-30T09:08:09.150Z,97819.88
2023-01-30T09:10:36.015Z,97805.25
2023-01-30T09:13:02.941Z,97823.88
2023-01-30T09:15:29.648Z,97837.41
2023-01-30T09:17:56.263Z,97845.03
2023-01-30T09:20:22.909Z,97848.31
2023-01-30T09:22:49.554Z,97841.56
2023-01-30T09:25:16.170Z,97834.88
2023-01-30T09:27:42.905Z,97839.41
2023-01-30T09:30:10.093Z,97840.28
2023-01-30T09:32:36.757Z,97844.94
2023-01-30T09:35:04.375Z,97838.13
2023-01-30T09:37:31.077Z,97836.13
2023-01-30T09:39:57.751Z,97842.22
2023-01-30T09:42:24.323Z,97836.25
2023-01-30T09:45:21.601Z,97836.28
2023-01-30T09:48:06.390Z,97842.53
2023-01-30T09:51:01.495Z,97851.09
2023-01-30T09:53:34.872Z,97862.09
2023-01-30T09:56:01.524Z,97858.50
2023-01-30T09:58:41.669Z,97853.22
2023-01-30T10:01:10.576Z,97845.38
2023-01-30T10:03:41.224Z,97846.53
2023-01-30T10:06:11.790Z,97851.00
2023-01-30T10:08:44.535Z,97855.34
2023-01-30T10:11:13.999Z,97853.97
2023-01-30T10:14:10.874Z,97861.97
2023-01-30T10:17:00.213Z,97858.03
2023-01-30T10:19:38.968Z,97871.47
2023-01-30T10:22:21.628Z,97876.56
2023-01-30T10:25:14.455Z,97869.25
2023-01-30T10:27:53.222Z,97871.81
2023-01-30T10:30:20.224Z,97887.31
2023-01-30T10:32:59.085Z,97881.81
2023-01-30T10:35:29.784Z,97879.63
2023-01-30T10:38:22.022Z,97883.38
2023-01-30T10:40:51.566Z,97883.88
2023-01-30T10:43:20.952Z,97884.47
2023-01-30T10:46:21.068Z,97884.06
2023-01-30T10:49:09.124Z,97880.13
2023-01-30T10:52:03.971Z,97874.31
2023-01-30T10:54:54.004Z,97882.03
2023-01-30T10:57:35.746Z,97891.53
2023-01-30T11:00:17.536Z,97895.06
2023-01-30T11:02:58.457Z,97885.06
2023-01-30T11:05:25.918Z,97882.91
2023-01-30T11:07:52.558Z,97904.44
2023-01-30T11:10:24.364Z,97897.41
2023-01-30T11:12:55.845Z,97895.78
2023-01-30T11:15:23.533Z,97885.81
2023-01-30T11:17:50.623Z,97884.66
2023-01-30T11:20:18.919Z,97897.00
2023-01-30T11:23:05.865Z,97880.31
2023-01-30T11:25:32.635Z,97871.34
2023-01-30T11:28:03.543Z,97852.53
2023-01-30T11:30:33.611Z,97852.69
2023-01-30T11:33:13.752Z,97842.53
2023-01-30T11:35:47.424Z,97840.34
2023-01-30T11:38:23.551Z,97825.38
2023-01-30T11:40:50.215Z,97819.25
2023-01-30T11:43:16.890Z,97824.38
2023-01-30T11:45:49.438Z,97829.84
2023-01-30T11:48:33.769Z,97831.34
2023-01-30T11:51:12.580Z,97834.03
2023-01-30T11:53:41.645Z,97828.56
2023-01-30T11:56:17.525Z,97821.22
2023-01-30T11:58:44.204Z,97820.19
2023-01-30T12:01:10.861Z,97811.88
2023-01-30T12:03:44.378Z,97805.88
2023-01-30T12:06:11.018Z,97796.75
2023-01-30T12:08:42.312Z,97784.41
2023-01-30T12:11:28.549Z,97775.91
2023-01-30T12:14:19.269Z,97758.75
2023-01-30T12:16:57.848Z,97759.22
2023-01-30T12:20:07.356Z,97754.88
2023-01-30T12:22:36.598Z,97759.72
2023-01-30T12:25:21.439Z,97763.56
2023-01-30T12:28:02.446Z,97772.91
2023-01-30T12:30:49.324Z,97761.22
2023-01-30T12:33:16.053Z,97751.59
2023-01-30T12:35:52.233Z,97752.56
2023-01-30T12:38:48.184Z,97754.09
2023-01-30T12:41:28.777Z,97758.75
2023-01-30T12:44:21.518Z,97757.91
2023-01-30T12:46:57.039Z,97755.72
2023-01-30T12:49:29.586Z,97759.59
2023-01-30T12:52:03.696Z,97739.56
2023-01-30T12:55:06.759Z,97730.94
2023-01-30T12:58:00.831Z,97725.59
2023-01-30T13:00:40.888Z,97734.56
2023-01-30T13:03:36.243Z,97722.44
2023-01-30T13:06:18.060Z,97714.91
2023-01-30T13:08:47.422Z,97717.91
2023-01-30T13:11:47.908Z,97714.88
2023-01-30T13:14:36.112Z,97707.84
2023-01-30T13:17:05.448Z,97710.19
2023-01-30T13:19:41.235Z,97699.63
2023-01-30T13:22:39.487Z,97700.47
2023-01-30T13:25:24.206Z,97710.88
2023-01-30T13:27:56.265Z,97712.91
2023-01-30T13:30:22.993Z,97717.38
2023-01-30T13:32:50.390Z,97700.56
2023-01-30T13:35:21.845Z,97702.69
2023-01-30T13:37:48.936Z,97699.50
2023-01-30T13:40:19.741Z,97702.34
2023-01-30T13:42:46.571Z,97712.16
2023-01-30T13:45:24.288Z,97721.47
2023-01-30T13:48:29.307Z,97704.50
2023-01-30T13:51:20.785Z,97711.16
2023-01-30T13:53:58.524Z,97709.31
2023-01-30T13:56:43.385Z,97711.16
2023-01-30T13:59:19.170Z,97703.66
2023-01-30T14:02:01.051Z,97694.88
2023-01-30T14:04:30.315Z,97709.28
2023-01-30T14:07:19.041Z,97728.59
2023-01-30T14:09:48.209Z,97723.47
2023-01-30T14:12:19.680Z,97722.28
2023-01-30T14:15:05.107Z,97710.81
2023-01-30T14:17:31.942Z,97714.28
2023-01-30T14:20:11.290Z,97710.59
2023-01-30T14:22:47.715Z,97703.78
2023-01-30T14:25:23.247Z,97727.13
2023-01-30T14:27:50.538Z,97726.25
2023-01-30T14:30:45.219Z,97714.25
2023-01-30T14:33:21.047Z,97718.56
2023-01-30T14:35:48.727Z,97725.34
2023-01-30T14:38:19.291Z,97726.34
2023-01-30T14:40:47.629Z,97725.00
2023-01-30T14:43:14.151Z,97723.88
2023-01-30T14:45:57.147Z,97728.19
2023-01-30T14:48:29.607Z,97725.66
2023-01-30T14:51:24.991Z,97735.00
2023-01-30T14:54:01.747Z,97736.44
2023-01-30T14:56:53.242Z,97716.69
2023-01-30T14:59:27.718Z,97720.41
2023-01-30T15:01:57.044Z,97720.03
2023-01-30T15:04:24.218Z,97719.50
2023-01-30T15:06:50.899Z,97728.84
2023-01-30T15:09:18.597Z,97740.19
2023-01-30T15:11:46.217Z,97736.19
2023-01-30T15:14:33.189Z,97740.81
2023-01-30T15:17:15.421Z,97732.03
2023-01-30T15:20:07.002Z,97729.84
2023-01-30T15:23:04.843Z,97735.78
2023-01-30T15:25:46.839Z,97732.78
2023-01-30T15:28:27.805Z,97727.41
2023-01-30T15:31:14.356Z,97731.75
2023-01-30T15:33:45.514Z,97728.09
2023-01-30T15:36:26.520Z,97719.72
2023-01-30T15:39:04.250Z,97722.38
2023-01-30T15:41:32.736Z,97724.91
2023-01-30T15:44:57.060Z,97735.59
2023-01-30T15:47:35.614Z,97732.59
2023-01-30T15:50:09.008Z,97740.75
2023-01-30T15:52:40.308Z,97735.59
2023-01-30T15:55:07.365Z,97738.91
2023-01-30T15:57:35.791Z,97743.28
2023-01-30T16:00:04.554Z,97743.13
2023-01-30T16:02:32.726Z,97739.47
2023-01-30T16:05:19.548Z,97746.66
2023-01-30T16:07:47.472Z,97744.81
2023-01-30T16:10:17.901Z,97752.50
2023-01-30T16:12:44.498Z,97748.03
2023-01-30T16:15:24.889Z,97744.53
2023-01-30T16:17:58.315Z,97745.03
2023-01-30T16:20:24.944Z,97744.06
2023-01-30T16:22:51.582Z,97749.06
2023-01-30T16:25:21.738Z,97760.75
2023-01-30T16:27:48.675Z,97769.59
2023-01-30T16:30:20.508Z,97763.91
2023-01-30T16:32:47.499Z,97768.75
2023-01-30T16:35:26.880Z,97767.91
2023-01-30T16:37:55.226Z,97762.91
2023-01-30T16:40:25.337Z,97770.25
2023-01-30T16:42:55.907Z,97769.06
2023-01-30T16:45:34.680Z,97770.75
2023-01-30T16:48:16.657Z,97768.59
2023-01-30T16:50:46.957Z,97763.88
2023-01-30T16:53:14.637Z,97761.41
2023-01-30T16:55:56.989Z,97762.22
2023-01-30T16:58:23.635Z,97770.06
2023-01-30T17:00:50.823Z,97775.25
2023-01-30T17:03:24.154Z,97768.25
2023-01-30T17:05:50.905Z,97778.56
2023-01-30T17:08:32.975Z,97778.38
2023-01-30T17:11:03.129Z,97785.72
2023-01-30T17:13:37.392Z,97785.91
2023-01-30T17:16:25.162Z,97782.56
2023-01-30T17:18:53.151Z,97780.91
2023-01-30T17:21:20.383Z,97784.56
2023-01-30T17:23:52.741Z,97784.22
2023-01-30T17:26:19.561Z,97796.56
2023-01-30T17:28:46.397Z,97797.88
2023-01-30T17:31:13.676Z,97801.06
2023-01-30T17:33:40.448Z,97800.22
2023-01-30T17:36:19.709Z,97797.22
2023-01-30T17:38:47.894Z,97806.72
2023-01-30T17:41:25.710Z,97806.72
2023-01-30T17:43:52.342Z,97801.38
2023-01-30T17:46:19.104Z,97809.72
2023-01-30T17:48:45.819Z,97809.22
2023-01-30T17:51:12.479Z,97804.88
2023-01-30T17:53:39.180Z,97804.22
2023-01-30T17:56:10.081Z,97804.56
2023-01-30T17:58:36.738Z,97809.38
2023-01-30T18:01:03.359Z,97818.22
2023-01-30T18:03:29.994Z,97830.22
2023-01-30T18:05:56.691Z,97832.53
2023-01-30T18:08:23.310Z,97829.19
2023-01-30T18:10:49.905Z,97831.53
2023-01-30T18:13:16.520Z,97831.34
2023-01-30T18:15:43.193Z,97839.88
2023-01-30T18:18:11.553Z,97830.34
2023-01-30T18:20:38.159Z,97831.38
2023-01-30T18:23:04.851Z,97832.19
2023-01-30T18:25:31.470Z,97833.03
2023-01-30T18:27:58.160Z,97839.19
2023-01-30T18:30:24.835Z,97842.50
2023-01-30T18:32:53.920Z,97848.50
2023-01-30T18:35:22.099Z,97842.50
2023-01-30T18:37:48.781Z,97845.00
2023-01-30T18:40:15.485Z,97849.34
2023-01-30T18:42:42.080Z,97854.16
2023-01-30T18:45:09.071Z,97852.84
2023-01-30T18:47:35.810Z,97851.16
2023-01-30T18:50:02.473Z,97853.16
2023-01-30T18:52:29.132Z,97853.81
2023-01-30T18:54:55.775Z,97854.47
2023-01-30T18:57:22.519Z,97857.25
2023-01-30T18:59:49.176Z,97864.88
2023-01-30T19:02:15.838Z,97860.72
2023-01-30T19:04:42.536Z,97860.03
2023-01-30T19:07:09.158Z,97859.09
2023-01-30T19:09:35.791Z,97852.25
2023-01-30T19:12:02.492Z,97855.22
2023-01-30T19:14:29.168Z,97854.88
2023-01-30T19:16:57.272Z,97854.56
2023-01-30T19:19:23.974Z,97851.06
2023-01-30T19:21:53.597Z,97857.53
2023-01-30T19:24:20.231Z,97862.72
2023-01-30T19:26:47.521Z,97858.38
2023-01-30T19:29:14.147Z,97855.72
2023-01-30T19:31:41.052Z,97857.53
2023-01-30T19:34:07.896Z,97860.19
2023-01-30T19:36:35.156Z,97865.03
2023-01-30T19:39:02.200Z,97863.75
2023-01-30T19:41:29.913Z,97863.75
2023-01-30T19:43:57.198Z,97859.94
2023-01-30T19:46:23.953Z,97868.59
2023-01-30T19:48:50.740Z,97879.41
2023-01-30T19:51:30.586Z,97883.72
2023-01-30T19:53:58.900Z,97880.25
2023-01-30T19:56:26.273Z,97869.91
2023-01-30T19:58:54.668Z,97875.72
2023-01-30T20:01:22.131Z,97876.84
2023-01-30T20:03:48.860Z,97872.22
2023-01-30T20:06:21.976Z,97878.56
2023-01-30T20:08:49.536Z,97879.72
2023-01-30T20:11:17.452Z,97868.84
2023-01-30T20:13:44.927Z,97874.03
2023-01-30T20:16:13.261Z,97872.91
2023-01-30T20:18:40.255Z,97875.91
2023-01-30T20:21:11.062Z,97872.72
2023-01-30T20:23:38.243Z,97868.41
2023-01-30T20:26:06.023Z,97868.06
2023-01-30T20:28:33.112Z,97866.50
2023-01-30T20:31:00.059Z,97870.81
2023-01-30T20:33:26.977Z,97865.84
2023-01-30T20:35:53.681Z,97881.44
2023-01-30T20:38:20.348Z,97881.94
2023-01-30T20:40:46.999Z,97878.59
2023-01-30T20:43:13.749Z,97873.09
2023-01-30T20:45:40.461Z,97874.31
2023-01-30T20:48:07.171Z,97873.63
2023-01-30T20:50:33.827Z,97875.63
2023-01-30T20:53:00.480Z,97875.09
2023-01-30T20:55:28.149Z,97879.56
2023-01-30T20:57:54.781Z,97878.59
2023-01-30T21:00:21.542Z,97870.63
2023-01-30T21:02:51.244Z,97871.03
2023-01-30T21:05:18.058Z,97875.66
2023-01-30T21:07:44.870Z,97875.75
2023-01-30T21:10:11.526Z,97877.53
2023-01-30T21:12:38.214Z,97868.50
2023-01-30T21:15:05.178Z,97867.66
2023-01-30T21:17:31.883Z,97865.22
2023-01-30T21:19:58.493Z,97860.41
2023-01-30T21:22:25.132Z,97867.19
2023-01-30T21:24:51.874Z,97863.53
2023-01-30T21:27:18.493Z,97853.13
2023-01-30T21:29:45.155Z,97860.63
2023-01-30T21:32:11.820Z,97860.63
2023-01-30T21:34:39.071Z,97860.94
2023-01-30T21:37:05.915Z,97865.91
2023-01-30T21:39:32.752Z,97867.22
2023-01-30T21:41:59.609Z,97871.31
2023-01-30T21:44:28.278Z,97858.69
2023-01-30T21:46:54.932Z,97856.31
2023-01-30T21:49:21.626Z,97850.59
2023-01-30T21:51:49.321Z,97849.19
2023-01-30T21:54:16.822Z,97851.19
2023-01-30T21:56:43.532Z,97855.25
2023-01-30T21:59:11.208Z,97843.78
2023-01-30T22:01:38.079Z,97846.22
2023-01-30T22:04:06.310Z,97847.38
2023-01-30T22:06:33.140Z,97850.41
2023-01-30T22:09:00.584Z,97842.56
2023-01-30T22:11:27.455Z,97842.38
2023-01-30T22:13:54.746Z,97837.81
2023-01-30T22:16:24.169Z,97836.38
2023-01-30T22:18:55.305Z,97834.03
2023-01-30T22:21:22.937Z,97836.47
2023-01-30T22:23:50.419Z,97837.22
2023-01-30T22:26:18.210Z,97833.97
2023-01-30T22:28:45.108Z,97833.44
2023-01-30T22:31:21.628Z,97828.50
2023-01-30T22:33:51.138Z,97830.56
2023-01-30T22:36:17.876Z,97833.91
2023-01-30T22:38:45.359Z,97833.53
2023-01-30T22:41:15.144Z,97835.97
2023-01-30T22:43:47.207Z,97842.31
2023-01-30T22:46:14.356Z,97833.81
2023-01-30T22:48:41.622Z,97837.69
2023-01-30T22:51:19.259Z,97837.38
2023-01-30T22:53:59.237Z,97838.75
2023-01-30T22:56:27.548Z,97847.41
2023-01-30T22:58:54.144Z,97836.47
2023-01-30T23:01:22.470Z,97841.09
2023-01-30T23:03:59.090Z,97851.66
2023-01-30T23:06:26.407Z,97839.22
2023-01-30T23:08:53.658Z,97848.31
2023-01-30T23:11:23.280Z,97841.31
2023-01-30T23:13:51.330Z,97846.41
2023-01-30T23:16:19.463Z,97847.81
2023-01-30T23:18:46.217Z,97842.09
2023-01-30T23:21:13.607Z,97841.78
2023-01-30T23:23:40.293Z,97842.09
2023-01-30T23:26:07.184Z,97849.25
2023-01-30T23:28:34.398Z,97841.19
2023-01-30T23:31:11.515Z,97839.28
2023-01-30T23:33:38.281Z,97841.19
2023-01-30T23:36:10.286Z,97848.19
2023-01-30T23:38:37.682Z,97847.47
2023-01-30T23:41:05.134Z,97853.50
2023-01-30T23:43:31.883Z,97852.72
2023-01-30T23:45:58.593Z,97849.31
2023-01-30T23:48:25.257Z,97854.94
2023-01-30T23:50:51.916Z,97854.28
2023-01-30T23:53:18.621Z,97841.31
2023-01-30T23:55:51.962Z,97837.53
2023-01-30T23:58:18.602Z,97831.06
